General Aviation Weather

Text Reports

Enter one or more of the following location identifiers separated by a space:

Zip Code, Four-Character ICAO or Three-Character IATA airport codes.

METAR - Aviation Routine Weather Report
LPPT - Lisbon,
Updated at 3:00 PM GMT on September 02, 2015 (4:00 PM WEST):
METAR LPPT 021500Z 33014KT 300V360 9999 SCT035 21/13 Q1016
TAF - Terminal Area Forecast
LPPT - Lisbon,
Updated at 3:00 PM GMT on September 02, 2015 (4:00 PM WEST):
TAF LPPT 021100Z 0212/0318 34012KT 9999 SCT035
      BECMG 0212/0215 32017KT
      BECMG 0221/0224 32010KT SCT018 PROB30
      TEMPO 0302/0308 BKN012
      BECMG 0312/0315 32017KT FEW035=
Decoded:
ID: LPPT   Lisbon/Portela, PO
REPORT TIME:  2 11: 0
VALID TIME: 2 September AT 12:00Z to 3 September AT 18:00Z.
INITIAL WX
   WINDS: 340 AT 12
   CLOUDS: 35 SCT
WX BECOMING FROM 12Z TO 15Z
   WINDS: 320 AT 17
WX BECOMING FROM 21Z TO 24Z
   WINDS: 320 AT 10
   CLOUDS: 18 SCT
30% PROBABILITY OF WX 
TEMPORARY WX FROM 02Z TO 08Z
   CLOUDS: 12 BKN
WX BECOMING FROM 12Z TO 15Z
   WINDS: 320 AT 17
   CLOUDS: 35 FEW
   COMMENTS: = 

INITIAL WX
   WEATHER: TAF_AMD_TFFF
   COMMENTS: 021115Z 0212/0312 08010KT 9999 SCT030 
WX BECOMING FROM 23Z TO 24Z
   WIND: VARIABLE AT 3
   CLOUDS: 20 FEW
   COMMENTS: = 

PIREP - Pilot Weather Report
LPPT - Lisbon,
Updated at 3:00 PM GMT on September 02, 2015 (4:00 PM WEST):
No PIREP is currently available for this location.
AIRMET - Airmens Meteorological Information
LPPT - Lisbon,
Updated at 3:00 PM GMT on September 02, 2015 (4:00 PM WEST):
No AIRMET is currently available for this location.
SIGMET - Significant Meteorological Information
LPPT - Lisbon,
Updated at 3:00 PM GMT on September 02, 2015 (4:00 PM WEST):
No SIGMET is currently available for this location.
NOTAM - Notice to Airmen
LPPT - Lisbon,
Updated at 3:00 PM GMT on September 02, 2015 (4:00 PM WEST):
No NOTAM is currently available for this location.
Forecast Area
LPPT - Lisbon,
Updated at 3:00 PM GMT on September 02, 2015 (4:00 PM WEST):
No NOTAM is currently available for this location.
Aviation Weather Maps